Time;durP1;ratioP1;P1;durP2;ratioP2;P2;SDS_P1;SDS_P2;PMS_P1;PMS_P2;Temp;Humidity;BMP_temperature;BMP_pressure;BME280_temperature;BME280_humidity;BME280_pressure;Samples;Min_cycle;Max_cycle;Signal;HPM_P1;HPM_P2
2021/01/11 00:00:09;;;;;;;;;;;;;;;8.52;66.62;99833.69;4906185;29;19958;-80
2021/01/11 00:02:39;;;;;;;;;;;;;;;8.15;67.52;99817.06;4918246;28;19969;-80
2021/01/11 00:05:09;;;;;;;;;;;;;;;8.22;66.61;99795.38;4908982;28;19946;-80
2021/01/11 00:07:38;;;;;;;;;;;;;;;8.15;67.43;99819.66;4913316;29;19923;-79
2021/01/11 00:10:05;;;;;;;;;;;;;;;7.80;68.27;99812.53;4939519;28;20359;-79
2021/01/11 00:12:44;;;;;;;;;;;;;;;8.24;66.43;99827.50;4922673;28;19922;-79
2021/01/11 00:15:12;;;;;;;;;;;;;;;8.30;65.50;99807.59;4971448;28;19936;-79
2021/01/11 00:17:39;;;;;;;;;;;;;;;8.21;65.67;99815.31;4940109;28;19957;-79
2021/01/11 00:20:07;;;;;;;;;;;;;;;8.09;65.27;99830.03;4957178;28;20021;-80
2021/01/11 00:22:36;;;;;;;;;;;;;;;7.99;65.98;99828.25;4946987;28;19932;-78
2021/01/11 00:25:05;;;;;;;;;;;;;;;8.28;65.54;99853.53;4968835;28;20821;-80
2021/01/11 00:27:32;;;;;;;;;;;;;;;8.33;65.73;99856.19;4968827;28;20021;-80
2021/01/11 00:29:58;;;;;;;;;;;;;;;8.11;66.21;99859.50;4958328;28;20297;-79
2021/01/11 00:32:26;;;;;;;;;;;;;;;8.17;66.48;99860.41;4927129;28;20355;-79
2021/01/11 00:34:56;;;;;;;;;;;;;;;8.04;66.70;99873.38;4974489;28;19922;-80
2021/01/11 00:37:23;;;;;;;;;;;;;;;8.04;66.37;99852.56;4941931;28;20097;-80
2021/01/11 00:39:50;;;;;;;;;;;;;;;7.84;67.01;99857.63;4971920;28;20008;-79
2021/01/11 00:42:17;;;;;;;;;;;;;;;8.12;66.24;99837.84;4965275;28;20017;-78
2021/01/11 00:44:45;;;;;;;;;;;;;;;8.42;64.34;99842.34;4948900;28;19927;-79
2021/01/11 00:47:15;;;;;;;;;;;;;;;8.31;64.93;99853.56;4972345;28;20007;-79
2021/01/11 00:49:47;;;;;;;;;;;;;;;8.35;63.88;99851.84;4949162;28;19932;-79
2021/01/11 00:52:13;;;;;;;;;;;;;;;7.88;64.67;99831.66;4975819;28;19941;-79
2021/01/11 00:54:43;;;;;;;;;;;;;;;8.15;63.09;99824.88;4942693;28;22367;-79
2021/01/11 00:57:11;;;;;;;;;;;;;;;8.29;62.66;99833.59;4975308;28;19925;-79
2021/01/11 00:59:38;;;;;;;;;;;;;;;8.21;63.34;99837.88;4957740;28;20329;-80
2021/01/11 01:02:04;;;;;;;;;;;;;;;8.40;63.00;99846.66;4965658;28;19930;-79
2021/01/11 01:04:30;;;;;;;;;;;;;;;8.46;62.88;99849.28;4965195;28;19922;-80
2021/01/11 01:07:02;;;;;;;;;;;;;;;8.08;63.29;99846.50;4981077;28;20361;-78
2021/01/11 01:09:29;;;;;;;;;;;;;;;7.92;63.55;99847.25;4960572;28;20008;-79
2021/01/11 01:11:55;;;;;;;;;;;;;;;7.98;64.28;99834.31;4945286;28;19973;-79
2021/01/11 01:14:22;;;;;;;;;;;;;;;8.56;61.90;99846.72;4959774;28;20029;-80
2021/01/11 01:16:48;;;;;;;;;;;;;;;8.14;63.71;99841.34;4958624;28;20001;-79
2021/01/11 01:19:15;;;;;;;;;;;;;;;8.00;64.91;99846.47;4975021;28;19922;-79
2021/01/11 01:21:41;;;;;;;;;;;;;;;8.38;63.75;99838.88;4949113;28;19930;-78
2021/01/11 01:24:08;;;;;;;;;;;;;;;8.40;64.22;99842.31;4955650;28;19922;-78
2021/01/11 01:26:35;;;;;;;;;;;;;;;8.49;64.10;99841.50;4965204;28;19930;-80
2021/01/11 01:29:04;;;;;;;;;;;;;;;8.27;64.47;99844.00;4965251;28;19921;-78
2021/01/11 01:31:32;;;;;;;;;;;;;;;8.19;64.20;99829.22;4945517;28;19926;-78
2021/01/11 01:33:58;;;;;;;;;;;;;;;8.22;63.41;99822.28;4950127;28;20352;-79
2021/01/11 01:36:24;;;;;;;;;;;;;;;8.08;64.15;99797.06;4980849;28;20343;-78
2021/01/11 01:38:51;;;;;;;;;;;;;;;8.53;63.01;99817.22;4951700;28;19922;-79
2021/01/11 01:41:17;;;;;;;;;;;;;;;8.52;62.81;99823.28;4968504;28;19957;-79
2021/01/11 01:43:44;;;;;;;;;;;;;;;8.37;63.04;99816.28;4962830;28;19925;-79
2021/01/11 01:46:14;;;;;;;;;;;;;;;8.27;63.05;99815.38;4980373;28;19926;-79
2021/01/11 01:48:43;;;;;;;;;;;;;;;8.52;62.12;99802.47;4964347;28;19926;-78
2021/01/11 01:51:11;;;;;;;;;;;;;;;8.30;62.68;99796.31;4966311;28;19929;-79
2021/01/11 01:53:40;;;;;;;;;;;;;;;8.45;62.55;99772.91;4970020;28;20024;-79
2021/01/11 01:56:07;;;;;;;;;;;;;;;8.55;62.32;99812.88;4978376;28;19929;-79
2021/01/11 01:58:35;;;;;;;;;;;;;;;8.53;62.45;99820.69;4980579;28;19922;-79
2021/01/11 02:01:03;;;;;;;;;;;;;;;8.29;63.11;99816.28;4980640;28;19951;-78
2021/01/11 02:03:30;;;;;;;;;;;;;;;8.44;62.97;99820.63;4983246;28;19925;-78
2021/01/11 02:05:58;;;;;;;;;;;;;;;8.64;62.57;99818.09;4967011;28;19922;-80
2021/01/11 02:08:31;;;;;;;;;;;;;;;8.63;62.55;99819.81;4984146;28;19944;-78
2021/01/11 02:11:19;;;;;;;;;;;;;;;8.33;62.85;99806.75;4979378;28;19929;-78
2021/01/11 02:13:49;;;;;;;;;;;;;;;8.96;61.22;99818.16;4978601;28;20423;-78
2021/01/11 02:16:33;;;;;;;;;;;;;;;8.71;61.64;99819.88;4980193;28;19929;-78
2021/01/11 02:19:17;;;;;;;;;;;;;;;8.58;62.28;99803.34;4981553;28;19922;-78
2021/01/11 02:21:43;;;;;;;;;;;;;;;8.38;62.19;99805.03;4969084;28;19976;-79
2021/01/11 02:24:10;;;;;;;;;;;;;;;8.62;61.74;99806.81;4966353;28;19922;-79
2021/01/11 02:26:53;;;;;;;;;;;;;;;8.37;62.36;99812.81;4964964;28;19922;-78
2021/01/11 02:29:52;;;;;;;;;;;;;;;8.55;61.94;99818.94;4986669;28;19965;-78
2021/01/11 02:32:19;;;;;;;;;;;;;;;8.79;61.47;99815.53;4908029;28;20375;-78
2021/01/11 02:34:49;;;;;;;;;;;;;;;8.75;61.26;99830.28;4958586;28;19928;-78
2021/01/11 02:37:16;;;;;;;;;;;;;;;8.94;60.91;99819.88;4961799;28;20009;-78
2021/01/11 02:39:43;;;;;;;;;;;;;;;8.74;61.62;99820.72;4952916;28;19922;-79
2021/01/11 02:42:10;;;;;;;;;;;;;;;9.06;60.58;99819.91;4980752;28;19933;-79
2021/01/11 02:44:36;;;;;;;;;;;;;;;8.98;60.54;99817.28;4981698;28;20284;-78
2021/01/11 02:47:02;;;;;;;;;;;;;;;8.94;60.99;99814.69;4980294;28;19930;-78
2021/01/11 02:49:35;;;;;;;;;;;;;;;8.82;61.30;99806.88;4982753;28;19936;-78
2021/01/11 02:52:10;;;;;;;;;;;;;;;8.89;61.41;99792.97;4962973;28;19933;-78
2021/01/11 02:54:38;;;;;;;;;;;;;;;9.09;60.74;99802.53;4961602;28;19922;-79
2021/01/11 02:57:05;;;;;;;;;;;;;;;9.05;60.91;99786.91;4965333;28;19959;-78
2021/01/11 02:59:32;;;;;;;;;;;;;;;9.22;60.40;99792.09;4954334;28;20340;-78
2021/01/11 03:02:06;;;;;;;;;;;;;;;8.91;61.00;99771.28;4950301;28;19929;-78
2021/01/11 03:04:33;;;;;;;;;;;;;;;9.25;59.86;99763.44;4962660;28;19932;-78
2021/01/11 03:07:07;;;;;;;;;;;;;;;8.96;60.88;99771.28;4956727;28;20063;-76
2021/01/11 03:09:36;;;;;;;;;;;;;;;9.59;58.56;99773.78;4966265;28;20312;-77
2021/01/11 03:12:03;;;;;;;;;;;;;;;9.21;58.80;99767.75;4967844;28;19961;-77
2021/01/11 03:14:29;;;;;;;;;;;;;;;8.91;60.34;99773.00;4978434;28;19947;-78
2021/01/11 03:16:56;;;;;;;;;;;;;;;8.62;61.17;99781.66;4987826;28;19948;-78
2021/01/11 03:19:22;;;;;;;;;;;;;;;8.96;60.06;99750.44;4975837;28;19976;-78
2021/01/11 03:21:49;;;;;;;;;;;;;;;9.49;58.74;99769.50;4985807;28;19991;-78
2021/01/11 03:24:16;;;;;;;;;;;;;;;9.48;58.54;99769.47;4949843;28;19930;-78
2021/01/11 03:26:42;;;;;;;;;;;;;;;9.14;59.51;99769.53;4962198;28;19929;-78
2021/01/11 03:29:09;;;;;;;;;;;;;;;8.99;59.09;99766.91;4950370;28;19926;-78
2021/01/11 03:31:35;;;;;;;;;;;;;;;9.49;58.32;99764.28;4970216;28;20001;-78
2021/01/11 03:34:02;;;;;;;;;;;;;;;9.47;58.02;99773.81;4962585;28;20077;-78
2021/01/11 03:36:29;;;;;;;;;;;;;;;9.29;58.53;99771.25;4945453;28;20013;-78
2021/01/11 03:38:58;;;;;;;;;;;;;;;9.51;57.65;99769.47;4965412;28;19930;-78
2021/01/11 03:41:24;;;;;;;;;;;;;;;9.91;56.41;99763.28;4948857;28;19929;-78
2021/01/11 03:43:51;;;;;;;;;;;;;;;9.41;57.66;99754.72;4927971;29;20266;-79
2021/01/11 03:46:18;;;;;;;;;;;;;;;8.95;59.54;99759.09;4896225;29;20062;-78
2021/01/11 03:48:44;;;;;;;;;;;;;;;8.88;59.85;99747.81;4927776;29;19990;-78
2021/01/11 03:51:11;;;;;;;;;;;;;;;9.06;59.43;99752.16;4931060;29;20430;-78
2021/01/11 03:53:37;;;;;;;;;;;;;;;9.45;57.96;99748.59;4925920;29;19938;-78
2021/01/11 03:56:07;;;;;;;;;;;;;;;9.76;57.54;99752.03;4908529;29;19997;-78
2021/01/11 03:58:33;;;;;;;;;;;;;;;9.96;56.58;99747.59;4912738;29;20010;-78
2021/01/11 04:01:00;;;;;;;;;;;;;;;9.60;57.77;99733.81;4932960;28;20026;-79
2021/01/11 04:03:26;;;;;;;;;;;;;;;8.95;59.20;99722.63;4940424;28;19930;-78
2021/01/11 04:05:53;;;;;;;;;;;;;;;8.85;59.44;99720.88;4935536;28;19922;-79
2021/01/11 04:08:20;;;;;;;;;;;;;;;8.94;59.77;99719.16;4947617;28;19938;-78
2021/01/11 04:10:47;;;;;;;;;;;;;;;9.12;59.08;99718.25;4941654;28;19923;-78
2021/01/11 04:13:14;;;;;;;;;;;;;;;8.96;59.06;99704.41;4945658;28;19969;-79
2021/01/11 04:15:40;;;;;;;;;;;;;;;8.79;59.59;99690.50;4961169;28;19945;-78
2021/01/11 04:18:06;;;;;;;;;;;;;;;9.07;58.92;99688.72;4967858;28;19922;-78
2021/01/11 04:20:32;;;;;;;;;;;;;;;9.02;59.02;99687.84;4976864;28;19926;-78
2021/01/11 04:22:59;;;;;;;;;;;;;;;8.61;59.94;99680.09;4971223;28;20473;-78
2021/01/11 04:25:25;;;;;;;;;;;;;;;8.96;59.42;99674.88;4981812;28;19960;-78
2021/01/11 04:27:55;;;;;;;;;;;;;;;9.44;57.86;99672.16;4963757;28;19987;-79
2021/01/11 04:30:22;;;;;;;;;;;;;;;9.03;59.20;99654.00;4945527;28;20373;-79
2021/01/11 04:32:48;;;;;;;;;;;;;;;8.76;60.26;99667.06;4979087;28;19928;-78
2021/01/11 04:35:15;;;;;;;;;;;;;;;8.97;60.01;99658.38;4975713;28;20017;-79
2021/01/11 04:37:42;;;;;;;;;;;;;;;8.63;60.52;99668.78;4974771;28;20003;-79
2021/01/11 04:40:09;;;;;;;;;;;;;;;8.95;60.21;99644.47;4971929;28;19971;-78
2021/01/11 04:42:48;;;;;;;;;;;;;;;9.19;59.39;99641.81;4962963;28;20321;-78
2021/01/11 04:45:15;;;;;;;;;;;;;;;9.05;59.89;99649.66;4971644;28;19925;-79
2021/01/11 04:47:41;;;;;;;;;;;;;;;9.27;59.32;99634.81;4983139;28;20029;-78
2021/01/11 04:50:08;;;;;;;;;;;;;;;8.60;61.38;99629.75;4984973;28;19922;-78
2021/01/11 04:52:35;;;;;;;;;;;;;;;9.16;60.53;99623.53;4978863;28;19929;-79
2021/01/11 04:55:03;;;;;;;;;;;;;;;9.39;60.03;99628.72;4965091;28;20344;-80
2021/01/11 04:57:31;;;;;;;;;;;;;;;9.18;60.39;99629.63;4978704;28;20256;-78
2021/01/11 05:00:01;;;;;;;;;;;;;;;9.27;60.11;99624.38;4963453;28;19928;-78
2021/01/11 05:02:28;;;;;;;;;;;;;;;8.56;62.00;99622.81;4984321;28;19926;-77
2021/01/11 05:04:56;;;;;;;;;;;;;;;8.79;61.12;99617.56;4986209;28;19941;-79
2021/01/11 05:07:23;;;;;;;;;;;;;;;8.80;61.18;99619.31;4976568;28;20269;-78
2021/01/11 05:09:50;;;;;;;;;;;;;;;9.09;60.55;99619.25;4971214;28;20012;-79
2021/01/11 05:12:16;;;;;;;;;;;;;;;9.09;59.55;99612.28;4979918;28;19922;-79
2021/01/11 05:14:43;;;;;;;;;;;;;;;8.99;59.71;99609.72;4978080;28;19929;-77
2021/01/11 05:17:13;;;;;;;;;;;;;;;9.14;59.78;99617.50;4941798;28;19925;-78
2021/01/11 05:19:39;;;;;;;;;;;;;;;8.98;59.92;99613.19;4978353;28;19933;-77
2021/01/11 05:22:11;;;;;;;;;;;;;;;8.98;59.68;99618.38;4959274;28;20311;-78
2021/01/11 05:24:40;;;;;;;;;;;;;;;9.27;59.15;99627.00;4979408;28;20294;-78
2021/01/11 05:27:08;;;;;;;;;;;;;;;8.96;60.13;99638.38;4966756;28;19930;-77
2021/01/11 05:29:34;;;;;;;;;;;;;;;9.22;59.17;99630.50;4974587;28;19941;-78
2021/01/11 05:32:08;;;;;;;;;;;;;;;8.99;59.59;99620.13;4966646;28;20037;-78
2021/01/11 05:34:49;;;;;;;;;;;;;;;9.06;60.07;99621.88;4933376;28;20396;-78
2021/01/11 05:37:33;;;;;;;;;;;;;;;8.83;60.91;99595.84;4969037;28;19930;-79
2021/01/11 05:40:04;;;;;;;;;;;;;;;8.84;61.79;99607.13;4974580;28;19926;-79
2021/01/11 05:42:31;;;;;;;;;;;;;;;8.43;62.92;99612.41;4977084;28;19921;-76
2021/01/11 05:45:14;;;;;;;;;;;;;;;9.04;61.24;99605.34;4981054;28;19948;-77
2021/01/11 05:47:55;;;;;;;;;;;;;;;8.98;61.93;99598.41;4982715;28;19922;-77
2021/01/11 05:50:22;;;;;;;;;;;;;;;8.73;62.54;99615.81;4966485;28;19921;-77
2021/01/11 05:52:49;;;;;;;;;;;;;;;8.69;62.74;99606.28;4966390;28;20385;-77
2021/01/11 05:55:19;;;;;;;;;;;;;;;9.00;61.62;99614.94;4960448;28;19922;-77
2021/01/11 05:57:57;;;;;;;;;;;;;;;8.72;62.65;99601.09;4979123;28;21494;-77
2021/01/11 06:00:25;;;;;;;;;;;;;;;9.10;61.59;99620.97;4978122;28;20642;-78
2021/01/11 06:02:53;;;;;;;;;;;;;;;8.68;62.81;99609.75;4984946;28;19937;-78
2021/01/11 06:05:19;;;;;;;;;;;;;;;8.87;62.27;99604.53;4962950;28;19929;-78
2021/01/11 06:07:46;;;;;;;;;;;;;;;8.22;64.15;99611.47;4972036;28;19961;-78
2021/01/11 06:10:13;;;;;;;;;;;;;;;8.29;64.12;99607.16;4981559;28;20384;-79
2021/01/11 06:12:40;;;;;;;;;;;;;;;8.92;62.87;99605.41;4978886;28;19946;-79
2021/01/11 06:15:08;;;;;;;;;;;;;;;8.57;63.57;99602.84;4976862;28;19921;-78
2021/01/11 06:17:35;;;;;;;;;;;;;;;8.56;63.89;99604.56;4953783;28;19922;-79
2021/01/11 06:20:01;;;;;;;;;;;;;;;8.61;63.10;99596.75;4964263;28;19930;-78
2021/01/11 06:22:57;;;;;;;;;;;;;;;8.22;64.87;99592.41;4964722;28;20412;-79
2021/01/11 06:25:23;;;;;;;;;;;;;;;8.62;63.49;99583.75;4941183;28;20016;-79
2021/01/11 06:27:55;;;;;;;;;;;;;;;9.07;62.37;99589.69;4969729;28;19947;-78
2021/01/11 06:30:36;;;;;;;;;;;;;;;9.11;61.81;99583.63;4945147;28;19936;-79
2021/01/11 06:33:05;;;;;;;;;;;;;;;8.29;64.19;99588.94;4986094;28;20371;-79
2021/01/11 06:35:52;;;;;;;;;;;;;;;8.56;64.60;99575.94;4960908;28;19930;-79
2021/01/11 06:38:22;;;;;;;;;;;;;;;8.66;64.36;99571.59;4966799;28;19957;-78
2021/01/11 06:40:50;;;;;;;;;;;;;;;8.77;63.79;99574.16;4980628;28;20008;-78
2021/01/11 06:43:18;;;;;;;;;;;;;;;8.43;64.89;99561.19;4967978;28;20007;-79
2021/01/11 06:45:46;;;;;;;;;;;;;;;8.76;63.65;99575.91;4973010;28;20004;-78
2021/01/11 06:48:14;;;;;;;;;;;;;;;8.97;63.19;99575.00;4968403;28;19928;-77
2021/01/11 06:50:45;;;;;;;;;;;;;;;8.60;63.79;99575.06;4982589;28;20000;-76
2021/01/11 06:53:11;;;;;;;;;;;;;;;9.07;62.95;99597.50;4984058;28;19932;-79
2021/01/11 06:55:38;;;;;;;;;;;;;;;8.44;64.39;99594.16;4968952;28;19922;-77
2021/01/11 06:58:05;;;;;;;;;;;;;;;8.47;65.13;99607.19;4983026;28;19933;-77
2021/01/11 07:00:38;;;;;;;;;;;;;;;8.54;64.81;99605.44;4986766;28;19924;-77
2021/01/11 07:03:06;;;;;;;;;;;;;;;9.02;63.25;99602.75;4972251;28;19979;-78
2021/01/11 07:05:33;;;;;;;;;;;;;;;8.82;63.47;99601.06;4987864;28;19922;-77
2021/01/11 07:08:03;;;;;;;;;;;;;;;8.75;64.05;99597.59;4952774;28;20400;-77
2021/01/11 07:10:29;;;;;;;;;;;;;;;8.96;63.38;99594.97;4979903;28;20008;-77
2021/01/11 07:13:15;;;;;;;;;;;;;;;9.05;63.14;99594.06;4979206;28;19944;-79
2021/01/11 07:15:43;;;;;;;;;;;;;;;9.24;62.95;99590.53;4986019;28;20233;-77
2021/01/11 07:18:09;;;;;;;;;;;;;;;8.80;64.32;99579.38;4977595;28;19925;-77
2021/01/11 07:20:41;;;;;;;;;;;;;;;8.64;64.85;99568.09;4965374;28;20288;-77
2021/01/11 07:23:07;;;;;;;;;;;;;;;8.91;64.27;99573.28;4966420;28;19996;-77
2021/01/11 07:25:36;;;;;;;;;;;;;;;9.23;63.52;99570.53;4985156;28;19931;-77
2021/01/11 07:28:03;;;;;;;;;;;;;;;9.02;63.46;99565.41;4989191;28;19933;-78
2021/01/11 07:30:35;;;;;;;;;;;;;;;9.05;63.60;99568.00;4984181;28;20388;-78
2021/01/11 07:33:10;;;;;;;;;;;;;;;9.05;63.57;99566.28;4953411;28;19944;-77
2021/01/11 07:35:39;;;;;;;;;;;;;;;8.73;64.03;99555.94;4982395;28;20308;-77
2021/01/11 07:38:10;;;;;;;;;;;;;;;9.10;64.01;99563.66;4981909;28;20387;-78
2021/01/11 07:40:37;;;;;;;;;;;;;;;9.47;62.29;99559.13;4985803;28;19971;-78
2021/01/11 07:43:03;;;;;;;;;;;;;;;9.59;61.97;99557.31;4981570;28;19926;-78
2021/01/11 07:45:30;;;;;;;;;;;;;;;8.97;63.48;99551.53;4985853;28;19921;-77
2021/01/11 07:47:57;;;;;;;;;;;;;;;8.97;63.85;99549.78;4989559;28;20378;-78
2021/01/11 07:50:27;;;;;;;;;;;;;;;8.65;64.69;99549.88;4964271;28;19926;-78
2021/01/11 07:52:56;;;;;;;;;;;;;;;8.94;63.72;99543.72;4978740;28;20313;-78
2021/01/11 07:55:29;;;;;;;;;;;;;;;9.06;63.75;99551.50;4956394;28;19969;-77
2021/01/11 07:58:05;;;;;;;;;;;;;;;8.79;64.59;99548.97;4988693;28;20041;-77
2021/01/11 08:00:31;;;;;;;;;;;;;;;9.02;64.24;99544.56;4976522;28;19926;-77
2021/01/11 08:02:57;;;;;;;;;;;;;;;9.71;61.92;99550.31;4983023;28;19921;-77
2021/01/11 08:05:29;;;;;;;;;;;;;;;9.19;63.57;99540.16;4977133;28;19936;-77
2021/01/11 08:08:03;;;;;;;;;;;;;;;8.93;64.94;99539.38;4937224;28;19957;-77
2021/01/11 08:10:30;;;;;;;;;;;;;;;8.99;64.41;99531.53;4974029;28;20296;-77
2021/01/11 08:13:04;;;;;;;;;;;;;;;9.15;63.72;99534.09;4967866;28;19930;-77
2021/01/11 08:15:31;;;;;;;;;;;;;;;8.91;64.52;99528.97;4961407;28;19976;-77
2021/01/11 08:17:57;;;;;;;;;;;;;;;8.84;64.44;99529.00;4944326;28;19921;-76
2021/01/11 08:20:24;;;;;;;;;;;;;;;8.67;65.68;99521.25;4963931;28;20265;-78
2021/01/11 08:22:51;;;;;;;;;;;;;;;8.78;64.87;99514.25;4981715;28;19928;-78
2021/01/11 08:25:18;;;;;;;;;;;;;;;8.32;66.94;99498.75;4982124;28;19949;-77
2021/01/11 08:27:49;;;;;;;;;;;;;;;8.26;66.80;99508.25;4982188;28;20031;-78
2021/01/11 08:30:19;;;;;;;;;;;;;;;8.34;66.83;99503.97;4950689;28;19985;-77
2021/01/11 08:32:48;;;;;;;;;;;;;;;8.39;66.93;99497.00;4986018;28;20377;-78
2021/01/11 08:35:16;;;;;;;;;;;;;;;8.14;67.06;99479.66;4959872;28;20365;-79
2021/01/11 08:37:42;;;;;;;;;;;;;;;8.54;65.95;99494.34;4982988;28;20020;-78
2021/01/11 08:40:10;;;;;;;;;;;;;;;8.59;65.94;99496.94;4967760;28;19952;-78
2021/01/11 08:42:38;;;;;;;;;;;;;;;8.30;66.50;99491.78;4972009;28;20295;-79
2021/01/11 08:45:26;;;;;;;;;;;;;;;8.55;66.13;99492.59;4991024;28;20329;-78
2021/01/11 08:48:05;;;;;;;;;;;;;;;8.65;66.02;99494.31;4961317;28;19942;-78
2021/01/11 08:50:34;;;;;;;;;;;;;;;8.31;67.40;99476.19;4975211;28;20053;-77
2021/01/11 08:53:19;;;;;;;;;;;;;;;8.28;67.10;99467.50;4967274;28;19991;-76
2021/01/11 08:56:07;;;;;;;;;;;;;;;8.19;67.75;99457.09;4980003;28;20001;-77
2021/01/11 08:58:36;;;;;;;;;;;;;;;8.32;67.04;99453.63;4946938;28;19929;-80
2021/01/11 09:01:13;;;;;;;;;;;;;;;8.52;66.54;99457.06;4964410;28;20029;-77
2021/01/11 09:03:55;;;;;;;;;;;;;;;8.26;67.40;99457.06;4961221;28;20770;-79
2021/01/11 09:06:33;;;;;;;;;;;;;;;8.31;66.99;99449.28;4973286;28;19929;-79
2021/01/11 09:09:06;;;;;;;;;;;;;;;8.52;66.81;99450.97;4961859;28;19922;-79
2021/01/11 09:11:33;;;;;;;;;;;;;;;8.30;67.62;99461.44;4977744;28;19965;-80
2021/01/11 09:14:06;;;;;;;;;;;;;;;8.15;68.05;99453.59;4982496;28;20199;-77
2021/01/11 09:16:34;;;;;;;;;;;;;;;8.54;67.00;99452.69;4971246;28;19962;-77
2021/01/11 09:19:11;;;;;;;;;;;;;;;8.47;67.00;99453.59;4958271;28;19922;-78
2021/01/11 09:21:41;;;;;;;;;;;;;;;8.05;68.36;99451.91;4969787;28;19948;-77
2021/01/11 09:24:08;;;;;;;;;;;;;;;8.19;68.06;99441.47;4927829;28;20589;-77
2021/01/11 09:26:35;;;;;;;;;;;;;;;8.40;67.62;99454.47;4959092;28;19930;-77
2021/01/11 09:29:08;;;;;;;;;;;;;;;8.21;67.96;99429.31;4960641;28;20004;-78
2021/01/11 09:31:36;;;;;;;;;;;;;;;8.49;66.91;99432.78;4939730;28;19944;-75
2021/01/11 09:34:11;;;;;;;;;;;;;;;8.75;66.22;99431.78;4961402;28;19926;-76
2021/01/11 09:36:41;;;;;;;;;;;;;;;8.54;66.94;99407.56;4924269;28;19947;-78
2021/01/11 09:39:09;;;;;;;;;;;;;;;8.30;67.65;99391.16;4957808;28;20068;-75
2021/01/11 09:41:42;;;;;;;;;;;;;;;8.47;67.07;99383.31;4942661;28;20007;-77
2021/01/11 09:44:10;;;;;;;;;;;;;;;8.29;67.58;99372.94;4955220;28;20065;-76
2021/01/11 09:46:40;;;;;;;;;;;;;;;8.63;66.49;99394.53;4959430;28;19980;-77
2021/01/11 09:49:10;;;;;;;;;;;;;;;8.56;66.26;99375.44;4961040;28;20135;-77
2021/01/11 09:51:37;;;;;;;;;;;;;;;8.43;66.61;99396.34;4955184;28;19972;-75
2021/01/11 09:54:05;;;;;;;;;;;;;;;8.75;66.02;99395.31;4967181;28;19953;-76
2021/01/11 09:56:32;;;;;;;;;;;;;;;8.84;65.74;99407.44;4979649;28;20376;-77
2021/01/11 09:59:17;;;;;;;;;;;;;;;8.89;65.48;99395.25;4964448;28;19929;-76
2021/01/11 10:01:44;;;;;;;;;;;;;;;9.06;64.86;99384.75;4984095;28;19930;-74
2021/01/11 10:04:11;;;;;;;;;;;;;;;8.83;65.91;99373.56;4964759;28;20214;-77
2021/01/11 10:06:38;;;;;;;;;;;;;;;8.73;65.99;99378.81;4973011;28;20309;-78
2021/01/11 10:09:04;;;;;;;;;;;;;;;8.73;66.17;99399.66;4968864;28;19925;-77
2021/01/11 10:11:31;;;;;;;;;;;;;;;8.69;66.62;99394.47;4953201;28;19922;-78
2021/01/11 10:13:58;;;;;;;;;;;;;;;8.87;65.77;99386.59;4963158;28;20304;-77
2021/01/11 10:16:25;;;;;;;;;;;;;;;8.86;66.04;99410.91;4961307;28;19922;-77
2021/01/11 10:18:52;;;;;;;;;;;;;;;8.72;66.64;99412.72;4983363;28;20604;-79
2021/01/11 10:21:18;;;;;;;;;;;;;;;8.88;66.31;99392.63;4969527;28;19922;-78
2021/01/11 10:23:45;;;;;;;;;;;;;;;8.73;66.56;99399.66;4983327;28;19937;-78
2021/01/11 10:26:31;;;;;;;;;;;;;;;8.98;66.25;99417.78;4953013;28;19922;-80
2021/01/11 10:28:57;;;;;;;;;;;;;;;8.97;66.23;99396.06;4965580;28;20343;-80
2021/01/11 10:31:24;;;;;;;;;;;;;;;9.07;66.21;99383.84;4966622;28;19932;-77
2021/01/11 10:33:56;;;;;;;;;;;;;;;9.09;65.86;99390.78;4972734;28;20436;-78
2021/01/11 10:36:22;;;;;;;;;;;;;;;9.29;65.49;99377.63;4953148;28;19941;-78
2021/01/11 10:38:48;;;;;;;;;;;;;;;9.46;64.47;99380.97;4995981;28;19967;-76
2021/01/11 10:41:16;;;;;;;;;;;;;;;9.34;65.02;99381.06;4959338;28;20401;-76
2021/01/11 10:43:43;;;;;;;;;;;;;;;9.37;64.90;99369.75;4988929;28;19926;-78
2021/01/11 10:46:17;;;;;;;;;;;;;;;9.12;65.86;99395.09;4960190;28;20053;-78
2021/01/11 10:48:44;;;;;;;;;;;;;;;9.28;64.57;99385.44;4951112;28;19996;-76
2021/01/11 10:51:11;;;;;;;;;;;;;;;9.09;65.59;99392.53;4950879;28;19949;-79
2021/01/11 10:53:38;;;;;;;;;;;;;;;9.27;65.10;99391.53;4951492;28;19926;-80
2021/01/11 10:56:05;;;;;;;;;;;;;;;9.47;64.15;99403.56;4966676;28;19922;-77
2021/01/11 10:58:32;;;;;;;;;;;;;;;9.21;64.31;99395.03;4938101;28;19921;-77
2021/01/11 11:00:59;;;;;;;;;;;;;;;9.19;64.69;99374.22;4950882;28;19927;-76
2021/01/11 11:03:29;;;;;;;;;;;;;;;9.43;64.11;99385.34;4952022;28;19926;-77
2021/01/11 11:05:57;;;;;;;;;;;;;;;9.26;64.49;99393.28;4950731;28;20361;-81
2021/01/11 11:08:23;;;;;;;;;;;;;;;9.21;64.81;99396.81;4952376;28;19966;-78
2021/01/11 11:10:50;;;;;;;;;;;;;;;9.88;62.80;99394.53;4962807;28;19932;-80
2021/01/11 11:13:32;;;;;;;;;;;;;;;9.73;63.04;99397.28;4978255;28;19922;-79
2021/01/11 11:16:06;;;;;;;;;;;;;;;9.95;62.47;99393.56;4947656;28;19946;-78
2021/01/11 11:18:34;;;;;;;;;;;;;;;9.63;64.07;99392.13;4969499;28;19980;-80
2021/01/11 11:21:05;;;;;;;;;;;;;;;9.17;64.93;99375.97;4952692;28;19930;-77
2021/01/11 11:23:31;;;;;;;;;;;;;;;9.17;65.35;99382.91;4951433;28;19933;-76
2021/01/11 11:25:59;;;;;;;;;;;;;;;9.23;65.62;99392.44;4961365;28;19982;-77
2021/01/11 11:28:29;;;;;;;;;;;;;;;9.40;65.47;99388.81;4916676;28;19934;-76
2021/01/11 11:30:57;;;;;;;;;;;;;;;9.74;64.17;99394.63;4956420;28;20309;-78
2021/01/11 11:33:24;;;;;;;;;;;;;;;9.27;65.41;99383.72;4916745;28;20357;-78
2021/01/11 11:35:51;;;;;;;;;;;;;;;9.31;66.02;99382.81;4950922;28;19925;-79
2021/01/11 11:38:18;;;;;;;;;;;;;;;9.58;64.94;99385.22;4943027;28;19930;-78
2021/01/11 11:40:44;;;;;;;;;;;;;;;9.84;64.58;99375.41;4954699;28;20345;-78
2021/01/11 11:43:12;;;;;;;;;;;;;;;9.38;65.84;99390.59;4945766;28;19929;-76
2021/01/11 11:45:40;;;;;;;;;;;;;;;8.95;67.41;99384.81;4953615;28;19957;-75
2021/01/11 11:48:10;;;;;;;;;;;;;;;9.39;67.11;99383.63;4924165;28;19922;-75
2021/01/11 11:50:36;;;;;;;;;;;;;;;9.58;66.85;99380.88;4946763;28;20369;-76
2021/01/11 11:53:03;;;;;;;;;;;;;;;9.99;65.47;99366.56;4939128;28;19922;-75
2021/01/11 11:55:30;;;;;;;;;;;;;;;9.67;66.63;99361.66;4948447;28;19933;-76
2021/01/11 11:57:57;;;;;;;;;;;;;;;9.14;68.24;99355.16;4930586;28;19926;-75
2021/01/11 12:00:24;;;;;;;;;;;;;;;9.12;68.29;99358.63;4951745;28;19930;-76
2021/01/11 12:03:12;;;;;;;;;;;;;;;9.34;68.41;99364.56;4950054;28;19926;-77
2021/01/11 12:05:38;;;;;;;;;;;;;;;9.61;67.13;99359.09;4966962;28;19922;-79
2021/01/11 12:08:05;;;;;;;;;;;;;;;9.59;67.21;99347.84;4967646;28;20389;-79
2021/01/11 12:10:32;;;;;;;;;;;;;;;9.69;67.20;99353.84;4942931;28;19941;-77
2021/01/11 12:12:58;;;;;;;;;;;;;;;9.52;67.63;99341.81;4947745;28;19922;-78
2021/01/11 12:15:25;;;;;;;;;;;;;;;9.64;67.78;99338.19;4947388;28;19994;-77
2021/01/11 12:17:52;;;;;;;;;;;;;;;9.93;66.82;99344.00;4965649;28;19930;-77
2021/01/11 12:20:19;;;;;;;;;;;;;;;10.04;67.17;99336.94;4946924;28;19985;-78
2021/01/11 12:22:51;;;;;;;;;;;;;;;9.30;69.58;99331.56;4935372;28;19922;-78
2021/01/11 12:25:18;;;;;;;;;;;;;;;9.91;67.12;99322.28;4948719;28;19922;-78
2021/01/11 12:27:44;;;;;;;;;;;;;;;10.16;66.75;99317.69;4956915;28;20305;-78
2021/01/11 12:30:11;;;;;;;;;;;;;;;10.13;66.81;99317.69;4943254;28;20024;-77
2021/01/11 12:32:40;;;;;;;;;;;;;;;10.04;66.65;99316.03;4945172;28;20061;-75
2021/01/11 12:35:08;;;;;;;;;;;;;;;9.83;68.32;99310.22;4963457;28;19922;-75
2021/01/11 12:37:34;;;;;;;;;;;;;;;10.04;67.55;99325.63;4965891;28;20364;-78
2021/01/11 12:40:00;;;;;;;;;;;;;;;9.91;68.01;99298.81;4956454;28;19926;-79
2021/01/11 12:42:27;;;;;;;;;;;;;;;9.81;68.71;99291.97;4936661;28;19922;-77
2021/01/11 12:44:54;;;;;;;;;;;;;;;10.47;66.99;99292.06;4948205;28;19936;-79
2021/01/11 12:47:20;;;;;;;;;;;;;;;9.65;68.87;99295.59;4969965;28;20377;-77
2021/01/11 12:49:48;;;;;;;;;;;;;;;10.17;68.91;99290.69;4977125;28;20391;-78
2021/01/11 12:52:15;;;;;;;;;;;;;;;9.89;69.04;99289.25;4971360;28;19929;-78
2021/01/11 12:54:42;;;;;;;;;;;;;;;10.29;67.32;99274.88;4987874;28;19985;-75
2021/01/11 12:57:08;;;;;;;;;;;;;;;10.09;67.78;99279.47;4979990;28;19926;-76
2021/01/11 12:59:36;;;;;;;;;;;;;;;10.37;67.01;99278.25;4982827;28;20001;-81
2021/01/11 13:02:05;;;;;;;;;;;;;;;9.86;68.65;99281.47;4982976;28;19930;-75
2021/01/11 13:04:32;;;;;;;;;;;;;;;10.30;67.07;99287.06;4965484;28;20012;-79
2021/01/11 13:07:00;;;;;;;;;;;;;;;10.38;67.16;99277.38;4973783;28;19925;-79